createdAt,value
2022-10-29T00:01:51.731Z,11.30
2022-10-29T00:04:40.848Z,10.00
2022-10-29T00:07:29.996Z,10.70
2022-10-29T00:10:20.618Z,12.13
2022-10-29T00:13:09.679Z,11.50
2022-10-29T00:15:58.471Z,9.95
2022-10-29T00:18:48.000Z,9.45
2022-10-29T00:21:38.316Z,9.05
2022-10-29T00:24:28.387Z,10.55
2022-10-29T00:27:18.952Z,9.82
2022-10-29T00:30:08.762Z,10.13
2022-10-29T00:32:58.324Z,11.02
2022-10-29T00:35:57.333Z,9.75
2022-10-29T00:38:46.892Z,10.43
2022-10-29T00:41:36.142Z,11.70
2022-10-29T00:44:33.069Z,10.48
2022-10-29T00:47:26.747Z,8.82
2022-10-29T00:50:16.989Z,10.40
2022-10-29T00:53:06.632Z,12.52
2022-10-29T00:55:56.251Z,10.18
2022-10-29T00:58:46.375Z,10.85
2022-10-29T01:01:37.202Z,9.57
2022-10-29T01:04:26.859Z,10.48
2022-10-29T01:07:16.434Z,10.55
2022-10-29T01:10:05.878Z,9.40
2022-10-29T01:13:10.401Z,9.35
2022-10-29T01:16:07.339Z,9.75
2022-10-29T01:19:06.550Z,10.77
2022-10-29T01:22:00.916Z,9.23
2022-10-29T01:25:27.582Z,9.70
2022-10-29T01:28:32.600Z,11.10
2022-10-29T01:31:32.877Z,10.52
2022-10-29T01:34:27.251Z,8.85
2022-10-29T06:07:27.769Z,8.00
2022-10-29T06:10:16.948Z,8.40
2022-10-29T06:13:13.106Z,8.23
2022-10-29T06:16:02.749Z,10.20
2022-10-29T06:18:52.158Z,9.93
2022-10-29T06:21:41.510Z,8.65
2022-10-29T06:24:32.154Z,8.98
2022-10-29T06:27:20.778Z,10.48
2022-10-29T06:30:11.292Z,10.38
2022-10-29T06:33:01.061Z,8.75
2022-10-29T06:35:50.654Z,9.55
2022-10-29T06:38:39.680Z,8.75
2022-10-29T06:41:30.363Z,10.98
2022-10-29T06:44:19.618Z,9.48
2022-10-29T06:47:08.518Z,10.00
2022-10-29T06:49:57.844Z,9.13
2022-10-29T06:52:55.050Z,8.43
2022-10-29T06:55:43.936Z,8.85
2022-10-29T06:58:34.663Z,9.05
2022-10-29T07:01:27.722Z,7.50
2022-10-29T07:04:21.267Z,9.00
2022-10-29T07:07:10.533Z,8.80
2022-10-29T07:10:00.703Z,8.00
2022-10-29T07:12:49.989Z,7.85
2022-10-29T07:15:40.755Z,8.52
2022-10-29T07:18:31.126Z,8.02
2022-10-29T07:21:20.304Z,7.28
2022-10-29T07:24:09.712Z,7.75
2022-10-29T07:26:58.861Z,8.07
2022-10-29T07:29:48.842Z,7.82
2022-10-29T07:32:39.341Z,7.35
2022-10-29T07:35:28.574Z,8.10
2022-10-29T07:38:17.725Z,7.43
2022-10-29T07:41:06.746Z,7.57
2022-10-29T07:43:55.846Z,6.43
2022-10-29T07:46:44.655Z,6.65
2022-10-29T07:49:35.299Z,6.25
2022-10-29T07:52:24.024Z,5.53
2022-10-29T07:55:13.055Z,7.07
2022-10-29T07:58:03.329Z,6.40
2022-10-29T08:00:52.642Z,7.32
2022-10-29T08:03:42.034Z,6.15
2022-10-29T08:06:32.983Z,7.30
2022-10-29T08:09:22.133Z,6.40
2022-10-29T08:12:12.238Z,6.78
2022-10-29T08:15:01.444Z,6.47
2022-10-29T08:17:51.534Z,6.90
2022-10-29T08:20:40.908Z,7.25
2022-10-29T08:23:31.511Z,6.97
2022-10-29T08:26:22.425Z,7.20
2022-10-29T08:29:12.548Z,8.65
2022-10-29T08:32:01.587Z,8.13
2022-10-29T08:34:50.776Z,9.73
2022-10-29T08:37:43.889Z,8.38
2022-10-29T08:40:44.014Z,8.73
2022-10-29T08:44:17.687Z,10.85
2022-10-29T08:47:15.052Z,8.75
2022-10-29T08:50:11.438Z,8.57
2022-10-29T08:53:22.353Z,9.45
2022-10-29T08:56:17.862Z,9.02
2022-10-29T08:59:10.306Z,9.25
2022-10-29T09:01:59.758Z,9.45
2022-10-29T09:04:49.419Z,9.88
2022-10-29T09:08:01.239Z,8.27
2022-10-29T09:10:56.229Z,10.13
2022-10-29T09:13:57.742Z,8.85
2022-10-29T09:16:53.906Z,8.57
2022-10-29T09:19:56.828Z,8.48
2022-10-29T09:22:52.907Z,8.73
2022-10-29T09:25:52.510Z,10.75
2022-10-29T09:28:57.966Z,10.15
2022-10-29T09:31:49.359Z,9.50
2022-10-29T09:34:42.458Z,11.43
2022-10-29T09:37:42.137Z,11.18
2022-10-29T09:40:35.322Z,14.13
2022-10-29T09:43:36.163Z,13.80
2022-10-29T09:46:36.941Z,14.93
2022-10-29T09:49:39.992Z,13.43
2022-10-29T09:52:32.856Z,12.60
2022-10-29T09:55:25.949Z,16.33
2022-10-29T09:58:20.888Z,14.35
2022-10-29T10:01:11.017Z,15.63
2022-10-29T10:04:12.729Z,14.05
2022-10-29T10:07:06.495Z,14.68
2022-10-29T10:09:58.175Z,15.55
2022-10-29T10:12:49.368Z,13.30
2022-10-29T10:15:40.106Z,15.23
2022-10-29T10:18:40.289Z,13.55
2022-10-29T10:21:33.054Z,15.05
2022-10-29T10:24:32.579Z,16.52
2022-10-29T10:27:30.470Z,14.82
2022-10-29T10:30:24.271Z,14.68
2022-10-29T10:36:18.029Z,15.80
2022-10-29T10:39:24.675Z,16.52
2022-10-29T10:42:20.537Z,17.92
2022-10-29T10:45:16.901Z,15.38
2022-10-29T10:48:11.273Z,16.92
2022-10-29T10:51:21.799Z,15.65
2022-10-29T10:54:28.119Z,15.10
2022-10-29T10:57:23.947Z,15.40
2022-10-29T11:00:20.128Z,15.65
2022-10-29T11:03:17.607Z,15.05
2022-10-29T11:06:11.681Z,15.52
2022-10-29T11:09:05.183Z,16.10
2022-10-29T11:12:02.228Z,14.57
2022-10-29T11:14:55.532Z,17.50
2022-10-29T11:17:54.146Z,14.18
2022-10-29T11:20:47.679Z,14.23
2022-10-29T11:23:39.794Z,12.50
2022-10-29T11:26:34.703Z,13.88
2022-10-29T11:29:37.030Z,13.07
2022-10-29T11:32:31.661Z,13.80
2022-10-29T11:35:25.775Z,14.02
2022-10-29T11:38:20.317Z,13.35
2022-10-29T11:41:23.813Z,11.02
2022-10-29T11:44:15.266Z,11.85
2022-10-29T11:47:24.906Z,15.15
2022-10-29T11:50:23.871Z,12.82
2022-10-29T11:53:29.388Z,12.93
2022-10-29T11:56:27.641Z,14.20
2022-10-29T11:59:21.073Z,12.70
2022-10-29T12:02:20.319Z,14.32
